x

Pt Arena - 19nm North Of Point Arena, Ca (46014) Wave Buoy

1:50am - Fri 25th Apr 2014 All times are PDT. -7 hours from GMT.

  • Sig Wave height 7.5ft
  • Peak Period 11s
  • Average Period 8s
  • Wind
    7mph, 9mph gusts
  • Sea Temp 56°f
  • Air Temp 54°f
  • Sea Pressure 1014.7mb
  • Pt Arena - 19nm North Of Point Arena, Ca
  • Pt Arena - 19nm North Of Point Arena, Ca

More Historic Weather Station data

Upgrade to MSW Pro to gain access to the past 30 days of data for over 8000 Wavebouys and Weather Stations around the globe.

Join Pro

Comparision Forecast

View Surf forecast
   
Fri 04/25 1:50am 7.5ft 11s 8s 7 9 mph 1014.7mb 56f 54f
12:50am 7ft 10s 8s 7 9 mph 1015.1mb 55f 54f
Thu 04/24 11:50pm 7.5ft 10s 8s 9 11 mph 1015.2mb 56f 54f
10:50pm 7ft 11s 8s 7 9 mph 1014.8mb 56f 54f
9:50pm  -   -   -  4 7 mph 1015.9mb 55f 54f
8:50pm  -   -   -  7
mph
1015.8mb - 55f
7:50pm  -   -   -  9 11 mph 1016mb 56f 55f
6:50pm  -   -   -  9 11 mph 1016.4mb 56f 54f
5:50pm  -   -   -  4 7 mph 1016.2mb 56f 55f
4:50pm 7ft 11s 8s 4 7 mph 1016.9mb 56f 55f
3:50pm 6ft 11s 7s 9 11 mph 1017.7mb 56f 56f
2:50pm 6.5ft 10s 7s 9 11 mph 1018.3mb 56f 55f
1:50pm 7ft 10s 7s 11 16 mph 1018.6mb 56f 55f
12:50pm  -   -   -  13 16 mph 1019.1mb 56f 55f
11:50am 6ft 11s 7s 11 13 mph 1019.1mb 56f 55f
10:50am  -   -   -  11 16 mph 1018.9mb 56f 55f
9:50am 6.5ft 11s 7s 11 13 mph 1018.8mb 56f 55f
8:50am 6.5ft 11s 8s 9 13 mph 1018.9mb 56f 55f
7:50am  -   -   -  9 11 mph 1018.5mb 56f 56f
6:50am  -   -   -  4 7 mph 1018.4mb 56f 56f
5:50am  -   -   -  4
mph
1018.4mb 56f 56f
4:50am 6.5ft 11s 8s 4 7 mph 1018.5mb 56f 55f
3:50am  -   -   -  7 9 mph 1018.3mb 56f 56f
2:50am 7ft 11s 8s 9 11 mph 1019.4mb 56f 56f
1:50am  -   -   -  7 9 mph 1019.9mb 56f 55f
12:50am 7ft 12s 8s 9 11 mph 1019.5mb 56f 55f
Wed 04/23 11:50pm  -   -   -  7 11 mph 1019.2mb 56f 55f
10:50pm 7ft 11s 8s 7 9 mph 1020.1mb 56f 55f
8:50pm  -   -   -  7 9 mph 1020.2mb 56f 54f
7:50pm  -   -   -  7
mph
- - 53f
6:50pm 7.5ft 13s 9s 4 7 mph 1020.5mb 56f 54f
4:50pm  -   -   -  4 7 mph 1021mb 57f 56f
3:50pm 8ft 12s 9s 4 7 mph 1021.5mb 56f 56f
1:50pm 9ft 13s 9s  -  2 mph 1022mb 58f 55f
11:50am 9.5ft 13s 10s 2 4 mph 1022.7mb 56f 53f
10:50am 9ft 14s 10s  -  4 mph 1022.6mb 56f 53f
9:50am  -   -   -  2 7 mph 1022.1mb 55f 52f
8:50am 9ft 12s 10s 2 7 mph 1022mb 55f 51f
7:50am  -   -   -  7 9 mph 1021.5mb 55f 50f
6:50am 9ft 14s 10s 4 7 mph 1021.1mb 55f 50f
5:50am  -   -   -  4
mph
1021.2mb - 50f
4:50am 7.5ft 15s 10s 7
mph
1020.7mb 55f 50f
3:50am 7.5ft 12s 9s 7 9 mph 1021.1mb 55f 50f
2:50am  -   -   -  4
mph
- - 50f
1:50am 7ft 12s 8s 4 7 mph 1021.6mb 55f 51f
12:50am  -   -   -  4
mph
- - 52f
Tue 04/22 11:50pm  -   -   -  7 11 mph 1021.9mb 55f 53f
10:50pm 7ft 13s 8s 9 11 mph 1021.9mb 55f 53f
9:50pm 7.5ft 12s 8s 11 13 mph 1021.9mb 55f 53f
8:50pm 7ft 13s 8s 13 16 mph 1021.6mb 55f 53f
7:50pm 7ft 13s 8s 13 16 mph 1021.1mb 55f 53f
6:50pm 7.5ft 11s 8s 13 16 mph 1021.2mb 55f 53f
5:50pm 8ft 11s 9s 11 16 mph 1021.3mb 55f 53f
4:50pm 8ft 11s 9s 13 16 mph 1021.3mb 55f 53f
3:50pm 8ft 13s 9s 11 16 mph 1021.5mb 55f 53f
2:50pm 8ft 12s 8s 11 16 mph 1021.6mb 55f 53f
1:50pm 9ft 12s 9s 11 13 mph 1021.6mb 55f 52f
12:50pm 9ft 12s 9s 9 13 mph 1021.4mb 54f 52f
11:50am  -   -   -  9 13 mph 1021.2mb 54f 52f
10:50am 9ft 13s 8s 11 13 mph 1020.8mb 53f 51f
9:50am 9.5ft 13s 8s 16 18 mph 1020.3mb 53f 52f
8:50am 9.5ft 12s 8s 16 18 mph 1019.9mb 54f 51f
7:50am 8ft 12s 7s 18 22 mph 1019.3mb 53f 52f
6:50am 9ft 13s 8s 20 25 mph 1018.7mb 53f 51f
5:50am 9ft 13s 8s 20 25 mph 1018.1mb 53f 51f
4:50am 9ft 13s 8s 18 22 mph 1017.5mb 53f 51f
3:50am 9.5ft 14s 8s 20 22 mph 1017.1mb 53f 51f
2:50am 10ft 14s 8s 22 27 mph 1016.8mb 53f 51f
1:50am 10ft 13s 8s 20 25 mph 1016.8mb 53f 51f
12:50am 11ft 13s 8s 20 25 mph 1016.7mb 53f 51f
Mon 04/21 11:50pm 11.5ft 13s 9s 18 25 mph 1016.5mb 53f 51f
10:50pm 10ft 13s 8s 18 20 mph 1016.7mb 53f 51f
9:50pm 11ft 14s 8s 22 25 mph 1016.3mb 53f 50f
8:50pm 12ft 13s 9s 25 29 mph 1015.9mb 53f 50f
7:50pm 10ft 13s 10s 25 34 mph 1015.9mb 53f 51f
6:50pm 12ft 13s 11s 2 7 mph 1016.4mb 53f 53f
5:50pm 10ft 14s 10s  -  4 mph 1016.7mb 54f 54f
4:50pm 11ft 14s 10s 7
mph
1017.3mb 54f 54f
3:50pm 10.5ft 15s 10s 9 11 mph 1017.4mb 54f 53f
2:50pm 11ft 14s 10s 2 4 mph 1017.6mb 54f 53f
1:50pm 10ft 14s 9s 2 4 mph 1017.8mb 54f 53f
12:50pm  -   -   -  2
mph
- - 53f
11:50am  -   -   -  2 4 mph 1018.4mb 53f 53f
10:50am 10.5ft 14s 9s 7 9 mph 1018.4mb 53f 53f
9:50am 12ft 14s 10s 7 11 mph 1018.5mb 52f 53f